CheckWX is a tool to help pilots better visualize weather data.  It is not intended as a substitute for an official pre-flight weather briefing.

17:08:06 UTC

20U METAR
Beach Airport
Beach, North Dakota, USA
Current

13 mins ago

K20U 241655Z AUTO 34005KT 6SM -DZ FEW019 06/06 A2966 RMK AO2
Observed
May-24 @ 16:55 UTC
Wind
  • 340° at 5 KTS
Visibility
6 SM
Flight Rules
VFR
Conditions
Light Drizzle
Cloud Levels
  • Few at 1,900' AGL
Temperature
C / 43°F
Dewpoint
C / 43°F
Humidity
100%
Altimeter
29.66" Hg
Pressure
1004.42 hPa
Previous

33 mins ago

K20U 241635Z AUTO 36006KT 6SM -DZ CLR 05/05 A2966 RMK AO2
Observed
May-24 @ 16:35 UTC
Wind
  • 360° at 6 KTS
Visibility
6 SM
Flight Rules
VFR
Conditions
Light Drizzle
Cloud Levels
  • Clear skies
Temperature
C / 41°F
Dewpoint
C / 41°F
Humidity
100%
Altimeter
29.66" Hg
Pressure
1004.42 hPa
Previous

53 mins ago

K20U 241615Z AUTO 36007KT 5SM -DZ FEW009 SCT014 SCT019 05/05 A2966 RMK AO2
Observed
May-24 @ 16:15 UTC
Wind
  • 360° at 7 KTS
Visibility
5 SM
Flight Rules
MVFR
Conditions
Light Drizzle
Cloud Levels
  • Few at 900' AGL
  • Scattered at 1,400' AGL
  • Scattered at 1,900' AGL
Temperature
C / 41°F
Dewpoint
C / 41°F
Humidity
100%
Altimeter
29.66" Hg
Pressure
1004.42 hPa